Justin, TX (76247)

11:51 AM CDT on August 30, 2015 (GMT -0500)
Huntwick | | Change Station
CLOSE
Current Station
Personal Weather Station
Location: Justin, TX
Elevation: 722 ft
Nearby Weather Stations

Elev 722 ft 33.06 °N, 97.31 °W | Updated 1 minute ago

Mostly Cloudy
Mostly Cloudy
90.8 °F
Feels Like 92 °F
N
7.0
Wind Variable Wind from WSW
Gusts 19.0 mph

Today
High -- | Low -- °F
--% Chance of Precip.
Yesterday
High -- | Low -- °F
Precip. -- in
7:02 AM 7:57 PM
Full, 99% visible
Pressure 29.97 in
Visibility 10.0 miles
Clouds Few 14000 ft
Mostly Cloudy 30000 ft
Heat Index 92 °F
Dew Point 64 °F
Humidity 41%
Rainfall 0.00 in
Snow Depth Not available.
UV 4 out of 12
Pollen 8.70 out of 12
Air Quality Not available.
Flu Activity Not available.
METAR KAFW 301553Z 22012G18KT 10SM FEW140 BKN300 32/16 A3002 RMK AO2 SLP148 T03220161
Pressure 29.97 in
Visibility 10.0 miles
Clouds Few 14000 ft
Mostly Cloudy 30000 ft
Heat Index 92 °F
Dew Point 64 °F
Humidity 41%
Rainfall 0.00 in
Snow Depth Not available.
UV 4 out of 12
Pollen 8.70 out of 12
Air Quality Not available.
Flu Activity Not available.
METAR KAFW 301553Z 22012G18KT 10SM FEW140 BKN300 32/16 A3002 RMK AO2 SLP148 T03220161
Nowcast | as of 10:36 am CDT on August 30, 2015

Light rain showers will continue to across portions of central Texas into the afternoon hours. Rainfall amounts will be light... generally under 1/10 of an inch. Later this afternoon...showers and thunderstorms may develop. The activity will primarily impact areas south of the I-20 corridor. Those engaged in outdoor activities should keep abreast of the weather. Move indoors immediately if lightning is seen or thunder is heard.

×

10-Day Weather Forecast

×

Almanac

Astronomy

Aug. 30, 2015 Rise Set
Actual Time
Civil Twilight
Nautical Twilight
Astronomical Twilight
Moon
Length of Visible Light
Length of Day
Tomorrow will be .
, % of the Moon is Illuminated

Today's Extremes

State Highs State Lows

Community

WunderPhotos

Upload Photos

1,851,008 photos uploaded!

WunderBlogs® & News

Nearby

Air Quality

  Air Quality AQ Index Pollutant
Not available.

Snow Depth

Station Depth Elevation

Earthquake Activity

City Distance Mag. Time & Date
Minimum magnitude displayed is 2.5.

Coastal Water Temperatures

Place Temperature

Stations

Nearby Weather Stations

Station Location Temp. Windchill Dew Point Humidity Wind Precip. Elev Updated Type